Time;durP1;ratioP1;P1;durP2;ratioP2;P2;SDS_P1;SDS_P2;PMS_P1;PMS_P2;Temp;Humidity;BMP_temperature;BMP_pressure;BME280_temperature;BME280_humidity;BME280_pressure;Samples;Min_cycle;Max_cycle;Signal;HPM_P1;HPM_P2
2023/03/13 00:01:09;;;;;;;104.05;44.20;;;;;;;5.57;89.17;98881.50;5035026;28;20120;-72
2023/03/13 00:03:34;;;;;;;82.72;38.22;;;;;;;5.60;88.80;98894.28;5035111;28;20036;-72
2023/03/13 00:05:59;;;;;;;56.45;28.90;;;;;;;5.62;89.11;98895.06;5034690;28;20117;-72
2023/03/13 00:08:28;;;;;;;37.70;21.67;;;;;;;5.62;89.30;98897.66;5034407;28;20030;-72
2023/03/13 00:10:53;;;;;;;25.02;15.60;;;;;;;5.62;89.96;98895.06;5035128;28;20457;-72
2023/03/13 00:13:18;;;;;;;20.10;12.63;;;;;;;5.74;89.29;98904.94;5034496;28;20033;-73
2023/03/13 00:15:44;;;;;;;13.25;9.43;;;;;;;5.63;89.34;98884.66;5034574;28;20047;-72
2023/03/13 00:18:09;;;;;;;15.55;10.27;;;;;;;5.64;89.16;98888.09;5034318;28;20041;-73
2023/03/13 00:20:34;;;;;;;12.95;9.10;;;;;;;5.82;89.47;98912.38;5034340;28;20021;-72
2023/03/13 00:22:59;;;;;;;12.20;8.75;;;;;;;5.73;89.14;98891.16;5034499;28;20029;-72
2023/03/13 00:25:25;;;;;;;11.88;7.75;;;;;;;5.76;89.77;98897.94;5034234;28;20038;-72
2023/03/13 00:27:50;;;;;;;9.77;7.20;;;;;;;5.79;89.26;98891.81;5034667;28;20029;-73
2023/03/13 00:30:16;;;;;;;12.45;8.35;;;;;;;5.95;89.06;98919.63;5034256;28;20151;-72
2023/03/13 00:32:42;;;;;;;10.43;7.55;;;;;;;5.96;89.12;98912.72;5034246;28;20100;-72
2023/03/13 00:35:08;;;;;;;10.88;7.95;;;;;;;6.00;89.28;98911.69;5034003;28;20026;-72
2023/03/13 00:37:33;;;;;;;17.17;10.57;;;;;;;5.99;89.47;98913.44;5033999;28;20080;-73
2023/03/13 00:39:58;;;;;;;29.27;14.35;;;;;;;5.87;89.09;98889.78;5034050;28;20017;-72
2023/03/13 00:42:24;;;;;;;41.97;17.40;;;;;;;6.02;89.37;98916.78;5033826;28;20029;-72
2023/03/13 00:44:49;;;;;;;71.15;25.15;;;;;;;6.04;89.40;98912.41;5034281;28;20053;-72
2023/03/13 00:47:14;;;;;;;93.40;29.85;;;;;;;6.03;89.15;98914.16;5034104;28;20061;-72
2023/03/13 00:49:40;;;;;;;112.57;34.05;;;;;;;6.07;89.49;98917.44;5033982;28;20104;-72
2023/03/13 00:52:05;;;;;;;84.43;26.73;;;;;;;5.90;89.40;98889.63;5034251;28;20112;-72
2023/03/13 00:54:31;;;;;;;94.18;28.02;;;;;;;5.90;89.34;98890.50;5033174;28;20021;-72
2023/03/13 00:56:56;;;;;;;95.88;30.40;;;;;;;5.99;89.42;98908.25;5033914;28;20064;-72
2023/03/13 00:59:21;;;;;;;63.70;25.23;;;;;;;5.85;89.76;98889.00;5033928;28;20036;-72
2023/03/13 01:01:47;;;;;;;47.58;20.45;;;;;;;6.01;89.60;98908.19;5034051;28;20057;-72
2023/03/13 01:04:12;;;;;;;27.23;13.30;;;;;;;5.90;89.95;98889.63;5032207;28;20491;-72
2023/03/13 01:06:41;;;;;;;16.75;10.82;;;;;;;6.03;89.93;98909.00;5033637;28;20078;-72
2023/03/13 01:09:09;;;;;;;11.65;7.53;;;;;;;6.03;89.81;98908.16;5033569;28;20021;-72
2023/03/13 01:11:37;;;;;;;13.68;7.72;;;;;;;6.00;89.79;98907.34;5033698;28;20021;-72
2023/03/13 01:14:05;;;;;;;11.70;7.53;;;;;;;6.05;90.10;98904.59;5033655;28;20040;-72
2023/03/13 01:16:33;;;;;;;16.92;8.35;;;;;;;6.10;89.73;98914.75;5033122;28;20045;-72
2023/03/13 01:19:04;;;;;;;15.57;8.70;;;;;;;6.11;89.80;98912.09;5033324;28;20534;-72
2023/03/13 01:21:30;;;;;;;16.67;9.18;;;;;;;6.13;89.84;98914.63;5033045;28;20409;-72
2023/03/13 01:23:56;;;;;;;20.42;9.85;;;;;;;6.07;89.61;98900.22;5033502;28;20018;-72
2023/03/13 01:26:22;;;;;;;18.85;8.95;;;;;;;6.16;89.58;98917.09;5033174;28;20477;-72
2023/03/13 01:28:48;;;;;;;15.98;8.38;;;;;;;6.04;90.01;98895.16;5033264;28;20021;-72
2023/03/13 01:31:31;;;;;;;16.52;8.93;;;;;;;6.11;89.78;98903.47;5032883;28;20044;-73
2023/03/13 01:33:59;;;;;;;11.23;6.68;;;;;;;6.12;90.65;98906.03;5033332;28;20108;-72
2023/03/13 01:36:26;;;;;;;11.90;6.72;;;;;;;5.98;90.82;98883.31;5033186;28;20139;-72
2023/03/13 01:38:56;;;;;;;10.88;6.55;;;;;;;6.08;91.01;98893.28;5031898;28;20473;-72
2023/03/13 01:41:23;;;;;;;8.25;5.32;;;;;;;6.00;91.09;98889.25;5032843;28;20440;-72
2023/03/13 01:43:49;;;;;;;10.60;6.10;;;;;;;5.97;91.18;98888.53;5032950;28;20030;-73
2023/03/13 01:46:17;;;;;;;10.07;6.47;;;;;;;6.07;91.94;98914.84;5032629;28;20044;-72
2023/03/13 01:49:03;;;;;;;9.30;5.95;;;;;;;6.04;92.04;98910.66;5033034;28;20085;-72
2023/03/13 01:51:37;;;;;;;11.00;6.50;;;;;;;5.95;92.25;98890.34;5032760;28;20037;-72
2023/03/13 01:54:08;;;;;;;12.65;7.38;;;;;;;6.09;91.99;98908.72;5032698;28;20029;-73
2023/03/13 01:56:39;;;;;;;11.73;7.43;;;;;;;6.01;92.07;98892.69;5032487;28;20595;-73
2023/03/13 01:59:07;;;;;;;11.00;6.70;;;;;;;5.96;92.57;98885.13;5032824;28;20097;-72
2023/03/13 02:01:33;;;;;;;13.05;7.57;;;;;;;5.93;92.66;98882.63;5032521;28;20033;-72
2023/03/13 02:03:59;;;;;;;11.73;7.28;;;;;;;6.08;92.85;98901.88;5032917;28;20030;-73
2023/03/13 02:06:28;;;;;;;12.15;6.53;;;;;;;5.96;92.42;98886.88;5031603;28;20025;-72
2023/03/13 02:08:58;;;;;;;13.63;7.32;;;;;;;6.02;93.03;98896.09;5032422;28;20083;-73
2023/03/13 02:11:41;;;;;;;10.52;6.57;;;;;;;5.95;93.26;98883.44;5032142;28;20037;-73
2023/03/13 02:14:07;;;;;;;14.52;8.73;;;;;;;6.07;93.52;98912.25;5032382;28;20542;-72
2023/03/13 02:16:33;;;;;;;10.55;6.70;;;;;;;5.95;93.43;98893.78;5032118;28;20164;-73
2023/03/13 02:19:06;;;;;;;11.55;7.22;;;;;;;6.02;93.30;98901.28;5032326;28;20388;-72
2023/03/13 02:21:43;;;;;;;12.23;7.00;;;;;;;6.15;93.47;98923.16;5032029;28;20040;-73
2023/03/13 02:24:20;;;;;;;11.45;6.43;;;;;;;6.15;93.39;98920.56;5032209;28;20025;-73
2023/03/13 02:26:45;;;;;;;12.38;6.90;;;;;;;6.04;93.64;98895.16;5032321;28;20080;-73
2023/03/13 02:29:17;;;;;;;11.98;7.32;;;;;;;5.97;93.89;98886.78;5032257;28;20547;-73
2023/03/13 02:31:44;;;;;;;13.25;7.75;;;;;;;5.93;93.81;98881.81;5032209;28;20461;-73
2023/03/13 02:34:12;;;;;;;11.13;6.40;;;;;;;6.04;94.38;98897.72;5032092;28;20025;-72
2023/03/13 02:36:39;;;;;;;11.32;7.32;;;;;;;6.02;94.70;98899.53;5031947;28;20041;-72
2023/03/13 02:39:05;;;;;;;11.80;7.10;;;;;;;6.02;94.72;98891.78;5032000;28;20032;-72
2023/03/13 02:41:33;;;;;;;11.63;6.78;;;;;;;5.99;94.73;98894.50;5031922;28;20030;-73
2023/03/13 02:43:58;;;;;;;9.20;7.10;;;;;;;6.08;96.07;98911.38;5032084;28;20037;-72
2023/03/13 02:46:24;;;;;;;8.50;5.70;;;;;;;6.07;96.17;98904.50;5031809;28;20479;-72
2023/03/13 02:48:52;;;;;;;9.35;5.80;;;;;;;6.03;96.16;98887.47;5031829;28;20034;-72
2023/03/13 02:51:32;;;;;;;6.90;5.10;;;;;;;6.16;96.47;98914.50;5032238;28;20029;-72
2023/03/13 02:54:08;;;;;;;7.18;5.40;;;;;;;6.00;96.90;98881.50;5031900;28;20385;-72
2023/03/13 02:56:36;;;;;;;7.35;6.30;;;;;;;6.15;96.77;98905.03;5031786;28;20061;-72
2023/03/13 02:59:02;;;;;;;10.05;6.00;;;;;;;5.98;97.71;98872.97;5031720;28;20147;-72
2023/03/13 03:01:27;;;;;;;8.05;6.13;;;;;;;6.07;98.33;98899.34;5031555;28;20057;-72
2023/03/13 03:03:52;;;;;;;10.02;6.30;;;;;;;5.91;98.91;98883.59;5031911;28;20025;-72
2023/03/13 03:06:18;;;;;;;11.50;6.38;;;;;;;5.87;99.51;98876.88;5031674;28;20033;-72
2023/03/13 03:08:43;;;;;;;11.18;6.57;;;;;;;5.73;99.54;98855.00;5031836;28;20105;-72
2023/03/13 03:11:09;;;;;;;8.25;5.93;;;;;;;6.12;99.60;98900.03;5031779;28;20465;-72
2023/03/13 03:13:35;;;;;;;9.23;6.78;;;;;;;6.15;99.12;98905.03;5031473;28;20040;-72
2023/03/13 03:16:09;;;;;;;9.10;7.00;;;;;;;6.07;98.54;98882.13;5031705;28;20663;-72
2023/03/13 03:18:35;;;;;;;12.50;7.82;;;;;;;6.06;98.62;98875.22;5033259;28;20030;-73
2023/03/13 03:21:03;;;;;;;13.98;8.63;;;;;;;6.16;98.41;98888.66;5035879;28;20045;-72
2023/03/13 03:23:29;;;;;;;9.77;7.47;;;;;;;6.08;98.52;98872.59;5035380;28;20022;-72
2023/03/13 03:25:54;;;;;;;12.43;7.90;;;;;;;6.10;98.35;98870.78;5035818;28;20071;-72
2023/03/13 03:28:19;;;;;;;10.48;7.60;;;;;;;6.28;98.15;98900.22;5035216;28;20496;-72
2023/03/13 03:30:44;;;;;;;10.52;7.07;;;;;;;6.20;98.28;98885.88;5035640;28;20049;-72
2023/03/13 03:33:10;;;;;;;12.38;8.02;;;;;;;6.21;98.12;98876.38;5035530;28;20156;-72
2023/03/13 03:35:37;;;;;;;11.13;7.40;;;;;;;6.32;97.82;98896.59;5035084;28;20490;-72
2023/03/13 03:38:04;;;;;;;9.95;8.15;;;;;;;6.29;98.66;98889.81;5035311;28;20164;-72
2023/03/13 03:40:29;;;;;;;14.32;9.32;;;;;;;6.28;98.11;98885.56;5035115;28;20037;-72
2023/03/13 03:42:54;;;;;;;12.50;8.50;;;;;;;6.26;98.40;98892.53;5035436;28;20021;-72
2023/03/13 03:45:19;;;;;;;12.40;8.10;;;;;;;6.27;98.69;98891.63;5034831;28;20499;-73
2023/03/13 03:47:45;;;;;;;12.77;9.50;;;;;;;6.34;98.92;98906.00;5035014;28;20032;-72
2023/03/13 03:50:10;;;;;;;18.83;14.18;;;;;;;6.22;99.02;98876.28;5035182;28;20057;-72
2023/03/13 03:52:36;;;;;;;14.10;9.60;;;;;;;6.34;98.83;98887.03;5034868;28;20469;-72
2023/03/13 03:55:02;;;;;;;13.63;10.35;;;;;;;6.16;98.93;98862.78;5034903;28;20057;-72
2023/03/13 03:57:27;;;;;;;11.57;9.25;;;;;;;6.18;99.17;98864.41;5034653;28;20057;-73
2023/03/13 03:59:53;;;;;;;14.23;9.40;;;;;;;6.06;99.39;98864.91;5034871;28;20034;-73
2023/03/13 04:02:18;;;;;;;12.15;9.20;;;;;;;6.06;99.49;98856.31;5034933;28;20512;-73
2023/03/13 04:04:43;;;;;;;16.70;10.85;;;;;;;6.19;99.33;98873.00;5035085;28;20029;-72
2023/03/13 04:07:09;;;;;;;17.13;10.60;;;;;;;6.10;100.00;98860.44;5034823;28;20029;-72
2023/03/13 04:09:34;;;;;;;16.45;11.50;;;;;;;6.11;99.46;98850.06;5034781;28;20527;-72
2023/03/13 04:11:59;;;;;;;27.63;16.13;;;;;;;6.22;99.45;98878.03;5034648;28;20060;-73
2023/03/13 04:14:24;;;;;;;21.50;13.77;;;;;;;6.07;99.65;98847.63;5034298;28;20025;-72
2023/03/13 04:16:50;;;;;;;15.73;10.38;;;;;;;6.09;99.81;98848.44;5034705;28;20053;-72
2023/03/13 04:19:15;;;;;;;13.23;9.80;;;;;;;6.14;99.26;98841.31;5034630;28;20030;-72
2023/03/13 04:21:40;;;;;;;13.20;10.40;;;;;;;6.15;99.17;98840.41;5034331;28;20437;-73
2023/03/13 04:24:06;;;;;;;14.20;9.25;;;;;;;6.20;99.57;98852.25;5034519;28;20076;-72
2023/03/13 04:26:31;;;;;;;18.20;14.18;;;;;;;6.26;99.67;98858.91;5034183;28;20087;-72
2023/03/13 04:28:56;;;;;;;23.05;16.15;;;;;;;6.22;99.80;98859.94;5033998;28;20552;-72
2023/03/13 04:31:23;;;;;;;19.13;13.93;;;;;;;6.05;99.84;98834.78;5033448;28;20119;-73
2023/03/13 04:33:48;;;;;;;16.52;13.35;;;;;;;6.17;100.00;98847.22;5034235;28;20057;-72
2023/03/13 04:36:13;;;;;;;17.13;13.07;;;;;;;6.12;100.00;98838.81;5034307;28;20511;-72
2023/03/13 04:38:39;;;;;;;21.00;14.32;;;;;;;6.13;100.00;98843.06;5033958;28;20302;-72
2023/03/13 04:41:04;;;;;;;20.02;14.82;;;;;;;6.15;100.00;98825.75;5034085;28;20099;-72
2023/03/13 04:43:29;;;;;;;24.17;14.35;;;;;;;6.18;100.00;98817.84;5033791;28;20056;-72
2023/03/13 04:45:55;;;;;;;16.83;13.25;;;;;;;6.31;100.00;98832.84;5034122;28;20026;-72
2023/03/13 04:48:21;;;;;;;23.05;15.50;;;;;;;6.29;100.00;98821.75;5033789;28;20029;-73
2023/03/13 04:50:47;;;;;;;25.30;17.55;;;;;;;6.16;99.79;98809.34;5033998;28;20037;-72
2023/03/13 04:53:13;;;;;;;20.50;15.95;;;;;;;6.25;100.00;98821.03;5033818;28;20056;-72
2023/03/13 04:55:38;;;;;;;20.38;15.68;;;;;;;6.36;100.00;98825.72;5033526;28;20033;-72
2023/03/13 04:58:04;;;;;;;24.10;17.08;;;;;;;6.33;100.00;98818.97;5033583;28;20029;-72
2023/03/13 05:00:29;;;;;;;27.42;17.42;;;;;;;6.30;100.00;98820.84;5032062;28;20033;-72
2023/03/13 05:02:54;;;;;;;29.20;19.73;;;;;;;6.25;100.00;98808.09;5033664;28;20026;-72
2023/03/13 05:05:20;;;;;;;30.52;20.58;;;;;;;6.25;100.00;98808.09;5033785;28;20032;-72
2023/03/13 05:07:45;;;;;;;24.27;18.40;;;;;;;6.30;100.00;98820.84;5033274;28;20037;-72
2023/03/13 05:10:10;;;;;;;28.35;17.85;;;;;;;6.33;100.00;98815.53;5033582;28;20026;-72
2023/03/13 05:12:35;;;;;;;25.88;18.48;;;;;;;6.21;100.00;98776.38;5033508;28;20017;-72
2023/03/13 05:15:01;;;;;;;25.30;16.33;;;;;;;6.18;100.00;98773.91;5033232;28;20103;-72
2023/03/13 05:17:26;;;;;;;26.48;16.90;;;;;;;6.17;100.00;98779.97;5033258;28;20076;-72
2023/03/13 05:19:51;;;;;;;27.08;17.85;;;;;;;6.12;100.00;98770.75;5033659;28;20112;-72
2023/03/13 05:22:17;;;;;;;27.52;18.00;;;;;;;6.12;100.00;98768.16;5033433;28;20025;-72
2023/03/13 05:24:42;;;;;;;21.10;16.08;;;;;;;6.10;100.00;98770.78;5033101;28;20036;-72
2023/03/13 05:27:07;;;;;;;24.40;18.25;;;;;;;6.20;100.00;98773.84;5033120;28;20025;-72
2023/03/13 05:29:32;;;;;;;25.00;17.77;;;;;;;6.41;99.84;98795.38;5033169;28;20029;-72
2023/03/13 05:31:58;;;;;;;28.35;19.33;;;;;;;6.30;99.88;98769.13;5033531;28;20035;-72
2023/03/13 05:34:23;;;;;;;22.92;17.33;;;;;;;6.31;100.00;98771.63;5033123;28;20026;-72
2023/03/13 05:36:48;;;;;;;24.67;17.55;;;;;;;6.49;100.00;98793.28;5033055;28;20378;-72
2023/03/13 05:39:14;;;;;;;27.42;16.77;;;;;;;6.39;99.67;98766.97;5033033;28;20070;-72
2023/03/13 05:41:39;;;;;;;27.25;17.85;;;;;;;6.56;99.52;98778.31;5032548;28;20045;-72
2023/03/13 05:44:04;;;;;;;25.45;18.05;;;;;;;6.51;99.50;98765.59;5032818;28;20037;-72
2023/03/13 05:46:30;;;;;;;25.92;17.52;;;;;;;6.62;99.60;98788.41;5032606;28;20025;-72
2023/03/13 05:48:55;;;;;;;23.55;16.35;;;;;;;6.55;99.35;98759.38;5033194;28;20362;-72
2023/03/13 05:51:20;;;;;;;27.75;16.70;;;;;;;6.64;99.24;98776.22;5033099;28;20377;-72
2023/03/13 05:53:46;;;;;;;25.00;16.40;;;;;;;6.56;99.78;98752.44;5032538;28;20032;-72
2023/03/13 05:56:11;;;;;;;23.17;15.13;;;;;;;6.49;100.00;98750.16;5032761;28;20036;-72
2023/03/13 05:58:36;;;;;;;23.17;16.73;;;;;;;6.59;99.99;98747.16;5032189;28;20052;-72
2023/03/13 06:01:07;;;;;;;27.35;16.65;;;;;;;6.59;99.59;98739.38;5032730;28;20550;-72
2023/03/13 06:03:32;;;;;;;27.48;18.65;;;;;;;6.76;99.39;98762.75;5032392;28;20061;-72
2023/03/13 06:05:58;;;;;;;22.77;15.88;;;;;;;6.66;99.40;98745.97;5032603;28;20053;-72
2023/03/13 06:08:23;;;;;;;25.40;17.25;;;;;;;6.73;99.33;98747.34;5032421;28;20124;-73
2023/03/13 06:10:48;;;;;;;27.88;16.80;;;;;;;6.77;98.95;98733.38;5032079;28;20029;-72
2023/03/13 06:13:14;;;;;;;23.20;16.67;;;;;;;6.84;99.27;98741.69;5032251;28;20029;-72
2023/03/13 06:15:39;;;;;;;28.45;17.25;;;;;;;6.73;98.52;98719.72;5032065;28;20505;-72
2023/03/13 06:18:04;;;;;;;29.42;17.98;;;;;;;6.96;99.45;98754.09;5032369;28;20064;-72
2023/03/13 06:20:30;;;;;;;28.80;17.23;;;;;;;6.98;98.93;98744.47;5031969;28;20023;-72
2023/03/13 06:22:55;;;;;;;23.83;17.00;;;;;;;6.98;98.62;98734.13;5032646;28;20053;-72
2023/03/13 06:25:21;;;;;;;29.48;16.88;;;;;;;7.02;98.35;98720.13;5032180;28;20051;-72
2023/03/13 06:27:46;;;;;;;29.83;16.67;;;;;;;7.25;98.04;98745.78;5032434;28;20037;-72
2023/03/13 06:30:12;;;;;;;31.60;17.63;;;;;;;7.12;98.04;98716.22;5032373;28;20029;-72
2023/03/13 06:32:37;;;;;;;25.85;16.75;;;;;;;7.29;98.20;98738.72;5031937;28;20516;-72
2023/03/13 06:35:03;;;;;;;26.30;16.23;;;;;;;7.38;97.73;98734.84;5032104;28;20021;-72
2023/03/13 06:37:29;;;;;;;26.40;17.25;;;;;;;7.35;97.22;98709.09;5031929;28;20460;-72
2023/03/13 06:39:54;;;;;;;27.88;17.85;;;;;;;7.56;96.73;98733.94;5031900;28;20072;-72
2023/03/13 06:42:19;;;;;;;32.60;17.00;;;;;;;7.63;96.68;98731.91;5031845;28;20267;-72
2023/03/13 06:44:45;;;;;;;25.85;17.08;;;;;;;7.73;96.23;98730.53;5031869;28;20021;-72
2023/03/13 06:47:10;;;;;;;29.20;16.98;;;;;;;7.84;95.98;98724.81;5031987;28;20079;-72
2023/03/13 06:49:35;;;;;;;26.05;17.20;;;;;;;7.89;95.32;98726.25;5031592;28;20100;-72
2023/03/13 06:52:01;;;;;;;28.65;18.33;;;;;;;7.87;94.92;98694.38;5031823;28;20116;-72
2023/03/13 06:54:26;;;;;;;29.02;17.48;;;;;;;8.10;94.69;98715.72;5031305;28;20114;-72
2023/03/13 06:56:52;;;;;;;28.17;16.83;;;;;;;8.02;94.59;98708.31;5031414;28;20072;-73
2023/03/13 06:59:17;;;;;;;31.67;16.95;;;;;;;8.22;94.26;98721.09;5031981;28;20124;-72
2023/03/13 07:01:42;;;;;;;27.77;16.70;;;;;;;8.14;93.81;98680.91;5031678;28;20041;-72
2023/03/13 07:04:12;;;;;;;25.73;17.05;;;;;;;8.58;93.00;98701.09;5031712;28;20053;-72
2023/03/13 07:06:37;;;;;;;25.83;14.73;;;;;;;8.86;92.05;98703.06;5031536;28;20064;-72
2023/03/13 07:09:03;;;;;;;23.92;15.25;;;;;;;9.07;90.98;98667.28;5031571;28;20064;-72
2023/03/13 07:11:29;;;;;;;24.10;13.60;;;;;;;9.52;89.33;98663.78;5031885;28;20456;-72
2023/03/13 07:13:55;;;;;;;20.63;14.77;;;;;;;10.09;87.33;98673.44;5032104;28;20044;-72
2023/03/13 07:16:21;;;;;;;20.15;12.80;;;;;;;10.66;85.43;98681.25;5031742;28;20132;-72
2023/03/13 07:18:46;;;;;;;18.10;11.40;;;;;;;10.94;83.88;98655.13;5031490;28;20026;-72
2023/03/13 07:21:12;;;;;;;16.90;10.38;;;;;;;11.33;82.22;98669.13;5031531;28;20084;-72
2023/03/13 07:23:38;;;;;;;15.07;10.63;;;;;;;11.70;81.13;98672.75;5031357;28;20034;-72
2023/03/13 07:26:09;;;;;;;17.23;11.15;;;;;;;11.81;79.69;98647.75;5031452;28;20475;-72
2023/03/13 07:28:34;;;;;;;;;;;;;;;12.36;78.86;98659.63;5031734;28;20040;-72
2023/03/13 07:31:18;;;;;;;19.75;9.98;;;;;;;12.92;76.68;98634.69;5031688;28;20284;-72
2023/03/13 07:33:44;;;;;;;16.50;8.70;;;;;;;13.77;74.42;98642.41;5031319;28;20076;-72
2023/03/13 07:36:11;;;;;;;12.88;8.73;;;;;;;14.10;72.64;98635.53;5031501;28;20040;-72
2023/03/13 07:38:36;;;;;;;18.02;9.32;;;;;;;13.91;72.01;98620.44;5031076;28;20026;-72
2023/03/13 07:41:03;;;;;;;14.93;8.68;;;;;;;13.77;72.04;98634.53;5031674;28;20397;-72
2023/03/13 07:43:30;;;;;;;15.32;10.25;;;;;;;13.44;72.61;98627.44;5031689;28;20035;-72
2023/03/13 07:46:00;;;;;;;14.10;10.82;;;;;;;13.17;73.48;98652.06;5031437;28;20049;-72
2023/03/13 07:48:35;;;;;;;17.90;11.38;;;;;;;12.62;74.56;98634.28;5031486;28;20061;-72
2023/03/13 07:51:00;;;;;;;23.23;14.48;;;;;;;12.40;76.13;98648.03;5031336;28;20036;-72
2023/03/13 07:53:27;;;;;;;18.88;14.02;;;;;;;12.00;77.04;98629.91;5031524;28;20037;-72
2023/03/13 07:56:01;;;;;;;25.90;17.35;;;;;;;11.73;78.01;98659.50;5031191;28;20037;-72
2023/03/13 07:58:30;;;;;;;30.25;21.63;;;;;;;11.42;79.44;98645.09;5031261;28;20025;-72
2023/03/13 08:00:56;;;;;;;27.83;18.25;;;;;;;11.37;80.24;98659.34;5031086;28;20040;-72
2023/03/13 08:03:22;;;;;;;29.02;22.02;;;;;;;11.19;80.69;98637.94;5031152;28;20034;-73
2023/03/13 08:06:06;;;;;;;32.80;20.50;;;;;;;11.17;81.31;98651.06;5032798;28;20025;-72
2023/03/13 08:08:32;;;;;;;26.20;16.33;;;;;;;11.20;81.45;98643.03;5034840;28;20041;-72
2023/03/13 08:11:05;;;;;;;15.93;9.45;;;;;;;10.97;81.75;98620.25;5034572;28;20576;-72
2023/03/13 08:13:31;;;;;;;22.00;11.88;;;;;;;10.97;82.44;98631.50;5034829;28;20064;-72
2023/03/13 08:16:14;;;;;;;17.10;10.57;;;;;;;11.00;83.10;98627.88;5034379;28;20057;-72
2023/03/13 08:18:43;;;;;;;18.85;10.55;;;;;;;11.27;82.58;98613.97;5034291;28;20025;-72
2023/03/13 08:21:11;;;;;;;23.05;15.13;;;;;;;11.46;81.66;98599.63;5034358;28;20029;-72
2023/03/13 08:23:37;;;;;;;21.67;12.27;;;;;;;11.79;80.60;98585.22;5034317;28;20026;-72
2023/03/13 08:26:08;;;;;;;14.68;7.85;;;;;;;12.25;79.32;98608.16;5034869;28;20025;-73
2023/03/13 08:28:35;;;;;;;17.30;9.13;;;;;;;12.59;77.85;98571.81;5034331;28;20029;-72
2023/03/13 08:31:07;;;;;;;17.63;10.18;;;;;;;12.89;77.05;98610.56;5034478;28;20029;-72
2023/03/13 08:33:33;;;;;;;16.27;8.68;;;;;;;12.92;76.71;98599.91;5034380;28;20026;-72
2023/03/13 08:35:58;;;;;;;18.05;9.65;;;;;;;12.67;76.42;98578.16;5033967;28;20041;-72
2023/03/13 08:38:23;;;;;;;16.63;8.80;;;;;;;12.58;76.36;98594.50;5034113;28;20021;-72
2023/03/13 08:40:50;;;;;;;11.88;8.38;;;;;;;12.65;76.63;98594.91;5033902;28;20509;-72
2023/03/13 08:43:15;;;;;;;14.50;8.73;;;;;;;12.80;76.07;98595.56;5034093;28;20477;-72
2023/03/13 08:45:40;;;;;;;17.85;8.35;;;;;;;12.80;76.02;98606.84;5033922;28;20052;-72
2023/03/13 08:48:06;;;;;;;20.83;8.25;;;;;;;12.55;76.18;98576.41;5034091;28;20071;-73
2023/03/13 08:50:31;;;;;;;15.93;7.35;;;;;;;12.40;76.68;98578.38;5034160;28;20136;-72
2023/03/13 08:52:56;;;;;;;20.08;10.05;;;;;;;12.14;77.56;98571.56;5033736;28;20480;-72
2023/03/13 08:55:21;;;;;;;15.80;7.88;;;;;;;12.13;78.26;98572.47;5032901;28;20112;-72
2023/03/13 08:57:47;;;;;;;16.17;6.65;;;;;;;11.96;78.50;98571.03;5033523;28;20121;-72
2023/03/13 09:00:13;;;;;;;15.30;8.45;;;;;;;12.04;78.96;98567.91;5034146;28;20025;-72
2023/03/13 09:02:38;;;;;;;20.60;9.40;;;;;;;11.86;78.87;98544.75;5033669;28;20468;-72
2023/03/13 09:05:04;;;;;;;12.30;6.28;;;;;;;11.88;78.15;98542.88;5033852;28;20060;-73
2023/03/13 09:07:29;;;;;;;10.27;6.45;;;;;;;12.10;77.89;98559.66;5033733;28;20065;-72
2023/03/13 09:09:55;;;;;;;13.18;7.70;;;;;;;12.04;77.94;98532.19;5033347;28;20025;-72
2023/03/13 09:12:20;;;;;;;16.75;8.02;;;;;;;12.18;77.71;98546.91;5033690;28;20053;-72
2023/03/13 09:14:47;;;;;;;13.63;6.70;;;;;;;12.10;77.82;98525.72;5033223;28;20029;-72
2023/03/13 09:17:12;;;;;;;11.50;5.90;;;;;;;12.03;78.25;98512.25;5032886;28;20022;-72
2023/03/13 09:19:37;;;;;;;13.13;6.50;;;;;;;12.13;78.78;98528.09;5033540;28;20032;-72
2023/03/13 09:22:03;;;;;;;19.38;6.63;;;;;;;12.02;79.27;98496.72;5033945;28;20369;-72
2023/03/13 09:24:28;;;;;;;10.73;5.82;;;;;;;11.98;79.42;98483.88;5033310;28;20067;-72
2023/03/13 09:26:53;;;;;;;14.82;6.10;;;;;;;11.95;79.75;98502.34;5032961;28;20419;-72
2023/03/13 09:29:19;;;;;;;15.88;8.00;;;;;;;12.12;79.87;98502.94;5033398;28;20079;-72
2023/03/13 09:31:45;;;;;;;16.90;8.95;;;;;;;12.21;79.08;98497.06;5032899;28;20032;-72
2023/03/13 09:34:10;;;;;;;15.35;6.57;;;;;;;12.17;78.13;98493.84;5033264;28;20029;-72
2023/03/13 09:36:35;;;;;;;11.23;5.55;;;;;;;12.09;78.76;98493.53;5033073;28;20021;-72
2023/03/13 09:39:01;;;;;;;13.30;5.45;;;;;;;12.01;78.60;98454.13;5032674;28;20029;-73
2023/03/13 09:41:41;;;;;;;13.30;5.30;;;;;;;11.99;78.18;98453.41;5032904;28;20030;-72
2023/03/13 09:44:12;;;;;;;14.57;5.10;;;;;;;12.22;77.46;98462.22;5033113;28;20083;-72
2023/03/13 09:46:53;;;;;;;14.68;6.35;;;;;;;12.36;77.29;98467.25;5033028;28;20122;-72
2023/03/13 09:49:33;;;;;;;12.73;4.90;;;;;;;12.40;76.90;98458.25;5032894;28;20394;-72
2023/03/13 09:52:25;;;;;;;13.00;6.72;;;;;;;12.42;76.94;98450.28;5032986;28;20028;-72
2023/03/13 09:55:14;;;;;;;14.10;5.65;;;;;;;12.44;76.21;98448.41;5032620;28;20108;-73
2023/03/13 09:57:52;;;;;;;12.38;6.55;;;;;;;12.46;75.87;98446.50;5032612;28;20026;-72
2023/03/13 10:00:23;;;;;;;18.60;6.03;;;;;;;12.41;76.08;98446.84;5032595;28;20075;-72
2023/03/13 10:02:57;;;;;;;18.27;9.30;;;;;;;12.39;75.96;98417.41;5032716;28;20026;-72
2023/03/13 10:05:27;;;;;;;21.67;13.82;;;;;;;12.54;75.82;98433.72;5032603;28;20025;-72
2023/03/13 10:08:07;;;;;;;17.07;10.87;;;;;;;12.59;75.80;98438.59;5032292;28;20025;-72
2023/03/13 10:11:11;;;;;;;21.70;11.38;;;;;;;12.41;76.05;98427.75;5032420;28;20337;-72
2023/03/13 10:13:45;;;;;;;22.75;13.60;;;;;;;12.19;76.89;98416.25;5010353;28;20478;-72
2023/03/13 10:16:17;;;;;;;19.15;10.15;;;;;;;12.19;76.67;98429.31;5010283;28;20057;-72
2023/03/13 10:18:47;;;;;;;;;;;;;;;12.16;77.43;98421.69;5010297;28;20080;-72
2023/03/13 10:21:17;;;;;;;21.17;10.20;;;;;;;11.97;77.80;98395.28;5010060;28;19918;-73
2023/03/13 10:23:56;;;;;;;18.38;9.32;;;;;;;12.08;78.77;98421.41;5009824;28;20172;-73
2023/03/13 10:26:27;;;;;;;19.88;6.72;;;;;;;11.96;79.47;98425.75;5010119;28;20021;-73
2023/03/13 10:28:54;;;;;;;12.27;6.10;;;;;;;11.91;80.23;98417.41;5009111;28;20513;-73
2023/03/13 10:31:30;;;;;;;9.98;4.32;;;;;;;11.77;80.69;98404.50;5010263;28;20433;-73
2023/03/13 10:34:05;;;;;;;17.85;6.78;;;;;;;11.92;81.53;98415.63;5009736;28;20102;-72
2023/03/13 10:36:40;;;;;;;15.10;7.68;;;;;;;11.76;82.00;98384.59;5009905;28;20112;-72
2023/03/13 10:39:13;;;;;;;19.05;6.28;;;;;;;11.74;82.08;98408.16;5009544;28;20026;-72
2023/03/13 10:41:38;;;;;;;20.58;7.97;;;;;;;11.78;83.13;98411.38;5009813;28;20038;-72
2023/03/13 10:44:14;;;;;;;15.65;8.40;;;;;;;11.72;83.45;98398.78;5009755;28;20445;-72
2023/03/13 10:46:43;;;;;;;16.52;7.07;;;;;;;11.81;84.16;98419.00;5009760;28;20076;-72
2023/03/13 10:49:19;;;;;;;14.30;6.63;;;;;;;11.72;83.88;98393.56;5009734;28;20045;-72
2023/03/13 10:51:47;;;;;;;15.27;7.95;;;;;;;11.81;83.91;98416.38;5031682;28;20025;-72
2023/03/13 10:54:14;;;;;;;22.55;9.00;;;;;;;11.78;84.74;98419.22;5031732;28;20485;-72
2023/03/13 10:56:40;;;;;;;36.53;22.65;;;;;;;11.62;85.15;98408.19;5032141;28;20495;-72
2023/03/13 10:59:20;;;;;;;22.45;10.52;;;;;;;11.64;85.75;98414.97;5031818;28;20036;-72
2023/03/13 11:01:46;;;;;;;28.60;12.85;;;;;;;11.60;86.78;98405.69;5031765;28;20029;-72
2023/03/13 11:04:32;;;;;;;24.60;11.30;;;;;;;11.69;87.35;98428.50;5031837;28;20124;-72
2023/03/13 11:07:13;;;;;;;24.15;10.45;;;;;;;11.56;88.17;98411.25;5031472;28;20083;-72
2023/03/13 11:09:38;;;;;;;31.52;13.25;;;;;;;11.59;87.88;98411.88;5031945;28;20056;-73
2023/03/13 11:12:11;;;;;;;37.75;17.27;;;;;;;11.75;88.17;98429.84;5031454;28;20889;-72
2023/03/13 11:14:37;;;;;;;30.15;14.88;;;;;;;11.59;88.66;98396.22;5031462;28;20053;-72
2023/03/13 11:17:14;;;;;;;22.73;12.38;;;;;;;11.48;88.09;98386.53;5031266;28;20465;-72
2023/03/13 11:19:48;;;;;;;24.25;12.70;;;;;;;11.83;88.21;98416.28;5031559;28;20021;-72
2023/03/13 11:22:13;;;;;;;22.50;11.13;;;;;;;11.93;87.99;98414.72;5031731;28;20358;-72
2023/03/13 11:25:02;;;;;;;20.67;11.05;;;;;;;11.86;87.68;98383.00;5032078;28;20040;-72
2023/03/13 11:27:42;;;;;;;20.95;9.07;;;;;;;12.07;87.14;98400.66;5031675;28;20484;-73
2023/03/13 11:30:25;;;;;;;15.80;10.27;;;;;;;12.14;86.32;98412.34;5031478;28;20373;-73